createdAt,value
2022-09-16T00:05:17.964Z,70.25
2022-09-16T00:12:19.531Z,70.04
2022-09-16T00:19:21.106Z,69.46
2022-09-16T00:26:23.855Z,68.98
2022-09-16T00:33:25.726Z,69.24
2022-09-16T00:40:27.296Z,69.02
2022-09-16T00:47:38.543Z,69.10
2022-09-16T00:54:40.143Z,69.64
2022-09-16T01:01:44.709Z,70.28
2022-09-16T01:08:46.524Z,71.23
2022-09-16T01:16:07.202Z,71.30
2022-09-16T01:23:12.035Z,72.20
2022-09-16T01:30:40.899Z,73.56
2022-09-16T01:38:07.814Z,73.97
2022-09-16T01:45:17.489Z,74.88
2022-09-16T01:52:20.551Z,75.83
2022-09-16T01:59:29.095Z,76.62
2022-09-16T02:06:30.667Z,76.61
2022-09-16T02:13:39.955Z,76.83
2022-09-16T02:20:43.451Z,78.07
2022-09-16T02:27:45.996Z,78.78
2022-09-16T02:34:49.881Z,79.95
2022-09-16T02:41:51.746Z,80.69
2022-09-16T02:49:08.175Z,80.89
2022-09-16T02:56:14.549Z,81.17
2022-09-16T03:03:16.281Z,81.57
2022-09-16T03:10:18.409Z,82.16
2022-09-16T03:17:34.198Z,83.46
2022-09-16T03:24:47.380Z,83.23
2022-09-16T03:31:55.408Z,83.55
2022-09-16T03:38:56.964Z,83.38
2022-09-16T03:45:58.584Z,83.39
2022-09-16T03:53:00.217Z,83.38
2022-09-16T04:00:02.048Z,83.30
2022-09-16T04:07:13.188Z,83.77
2022-09-16T04:14:14.784Z,83.58
2022-09-16T04:21:16.480Z,83.70
2022-09-16T04:28:18.053Z,83.06
2022-09-16T04:35:19.606Z,83.50
2022-09-16T04:42:21.199Z,83.33
2022-09-16T04:49:22.745Z,83.81
2022-09-16T04:56:26.159Z,83.01
2022-09-16T05:03:27.832Z,83.11
2022-09-16T05:10:29.445Z,82.96
2022-09-16T05:17:49.799Z,83.14
2022-09-16T05:24:52.614Z,83.17
2022-09-16T05:31:54.208Z,83.59
2022-09-16T05:39:20.976Z,83.06
2022-09-16T05:46:19.749Z,82.46
2022-09-16T05:53:21.528Z,82.12
2022-09-16T06:00:23.134Z,82.13
2022-09-16T06:07:24.673Z,81.36
2022-09-16T06:14:26.522Z,80.93
2022-09-16T06:21:28.272Z,81.08
2022-09-16T06:28:30.011Z,80.68
2022-09-16T06:35:31.600Z,79.88
2022-09-16T06:42:33.144Z,78.45
2022-09-16T06:49:38.371Z,78.55
2022-09-16T06:56:41.355Z,77.67
2022-09-16T07:03:44.984Z,77.01
2022-09-16T07:10:58.766Z,77.27
2022-09-16T07:18:00.330Z,75.70
2022-09-16T07:25:01.875Z,74.18
2022-09-16T07:32:03.421Z,73.73
2022-09-16T07:39:05.804Z,72.00
2022-09-16T07:46:08.054Z,71.53
2022-09-16T07:53:09.642Z,69.57
2022-09-16T08:00:12.094Z,69.55
2022-09-16T08:07:13.796Z,65.67
2022-09-16T08:14:15.361Z,65.24
2022-09-16T08:21:22.276Z,63.45
2022-09-16T08:28:39.948Z,64.29
2022-09-16T08:36:02.494Z,64.03
2022-09-16T08:43:44.353Z,63.06
2022-09-16T08:50:47.142Z,62.70
2022-09-16T08:57:56.779Z,62.15
2022-09-16T09:04:59.356Z,58.73
2022-09-16T09:12:39.521Z,57.53
2022-09-16T09:20:07.782Z,56.34
2022-09-16T09:27:23.334Z,55.79
2022-09-16T09:34:59.859Z,52.10
2022-09-16T09:42:21.169Z,51.04
2022-09-16T09:49:31.646Z,48.23
2022-09-16T09:56:44.952Z,49.44
2022-09-16T10:03:48.189Z,47.00
2022-09-16T10:10:54.978Z,46.00
2022-09-16T10:17:58.924Z,46.04
2022-09-16T10:25:18.671Z,41.89
2022-09-16T10:32:20.372Z,40.62
2022-09-16T10:39:24.038Z,41.32
2022-09-16T10:46:25.767Z,41.23
2022-09-16T10:53:32.901Z,40.59
2022-09-16T11:00:59.858Z,39.92
2022-09-16T11:08:29.383Z,38.40
2022-09-16T11:15:49.950Z,35.24
2022-09-16T11:23:35.837Z,36.41
2022-09-16T11:30:48.937Z,37.65
2022-09-16T11:38:25.530Z,36.89
2022-09-16T11:45:39.281Z,37.50
2022-09-16T11:53:12.751Z,33.60
2022-09-16T12:00:17.067Z,32.80
2022-09-16T12:07:24.756Z,33.00
2022-09-16T12:14:29.787Z,34.20
2022-09-16T12:21:35.008Z,32.85
2022-09-16T12:28:37.855Z,30.57
2022-09-16T12:35:47.831Z,29.67
2022-09-16T12:43:10.931Z,29.46
2022-09-16T12:50:13.115Z,30.12
2022-09-16T12:57:33.611Z,30.21
2022-09-16T13:04:39.393Z,30.53
2022-09-16T13:19:24.303Z,26.39
2022-09-16T13:26:25.937Z,25.47
2022-09-16T13:33:29.146Z,24.96
2022-09-16T13:40:31.121Z,26.01
2022-09-16T13:47:40.127Z,25.56
2022-09-16T13:55:06.309Z,25.92
2022-09-16T14:02:29.302Z,25.42
2022-09-16T14:10:07.753Z,24.55
2022-09-16T14:17:17.126Z,25.25
2022-09-16T14:24:19.802Z,24.58
2022-09-16T14:31:29.210Z,24.37
2022-09-16T14:38:45.890Z,23.74
2022-09-16T14:45:53.122Z,24.03
2022-09-16T14:53:05.775Z,24.46
2022-09-16T15:00:12.551Z,24.54
2022-09-16T15:07:18.191Z,25.06
2022-09-16T15:14:19.921Z,25.46
2022-09-16T15:21:26.325Z,26.28
2022-09-16T15:28:28.014Z,27.54
2022-09-16T15:35:33.383Z,28.50
2022-09-16T15:42:34.982Z,29.46
2022-09-16T15:49:38.276Z,30.04
2022-09-16T15:56:48.653Z,30.16
2022-09-16T16:03:57.996Z,31.00
2022-09-16T16:11:07.941Z,31.61
2022-09-16T16:18:10.634Z,32.02
2022-09-16T16:25:13.144Z,31.92
2022-09-16T16:32:15.693Z,32.61
2022-09-16T16:39:17.245Z,32.57
2022-09-16T16:46:18.851Z,33.30
2022-09-16T16:53:20.492Z,33.74
2022-09-16T17:00:22.102Z,34.38
2022-09-16T17:07:26.579Z,34.98
2022-09-16T17:14:29.736Z,35.75
2022-09-16T17:21:32.447Z,36.01
2022-09-16T17:28:34.022Z,35.71
2022-09-16T17:35:36.248Z,37.27
2022-09-16T17:42:37.834Z,37.59
2022-09-16T17:49:39.371Z,38.46
2022-09-16T17:56:42.581Z,40.00
2022-09-16T18:03:45.531Z,40.38
2022-09-16T18:10:52.693Z,41.19
2022-09-16T18:17:54.443Z,41.88
2022-09-16T18:24:56.017Z,42.75
2022-09-16T18:31:58.320Z,43.03
2022-09-16T18:38:59.911Z,43.24
2022-09-16T18:46:12.216Z,43.50
2022-09-16T18:53:13.800Z,43.85
2022-09-16T19:00:15.563Z,43.99
2022-09-16T19:07:19.193Z,44.34
2022-09-16T19:14:24.138Z,44.73
2022-09-16T19:21:25.745Z,45.43
2022-09-16T19:28:27.350Z,45.32
2022-09-16T19:35:32.406Z,46.51
2022-09-16T19:42:33.959Z,49.31
2022-09-16T19:49:35.526Z,50.51
2022-09-16T19:56:37.118Z,54.55
2022-09-16T20:03:40.763Z,56.61
2022-09-16T20:10:42.309Z,60.37
2022-09-16T20:17:43.933Z,63.40
2022-09-16T20:24:45.481Z,64.87
2022-09-16T20:31:48.145Z,67.10
2022-09-16T20:38:49.974Z,67.93
2022-09-16T20:45:51.591Z,70.40
2022-09-16T20:52:53.240Z,72.90
2022-09-16T20:59:54.812Z,73.46
2022-09-16T21:06:56.370Z,72.79
2022-09-16T21:13:59.447Z,74.45
2022-09-16T21:21:14.447Z,74.94
2022-09-16T21:28:15.989Z,76.39
2022-09-16T21:35:17.951Z,77.94
2022-09-16T21:42:19.518Z,80.08
2022-09-16T21:49:28.966Z,80.31
2022-09-16T21:56:30.997Z,80.41
2022-09-16T22:03:32.577Z,81.37
2022-09-16T22:10:34.138Z,81.72
2022-09-16T22:17:35.749Z,81.95
2022-09-16T22:24:37.313Z,83.16
2022-09-16T22:31:40.496Z,83.67
2022-09-16T22:38:52.304Z,84.82
2022-09-16T22:45:53.894Z,84.64
2022-09-16T22:52:55.452Z,84.52
2022-09-16T22:59:57.014Z,85.55
2022-09-16T23:06:58.745Z,86.43
2022-09-16T23:14:01.127Z,85.75
2022-09-16T23:21:07.325Z,86.10
2022-09-16T23:28:09.521Z,85.71
2022-09-16T23:35:11.167Z,86.28
2022-09-16T23:42:12.754Z,86.41
2022-09-16T23:49:16.925Z,86.13
2022-09-16T23:56:18.874Z,86.47
